sensor_id;sensor_type;location;lat;lon;timestamp;P1;P4;P2;P0;N10;N4;N25;N1;N05;TS
45310;SPS30;68264;51.540;5.854;2023-07-08T00:12:58;1.08;;4.26;4.15;7757.1;;4479.9;4466.6;7757.0;
45310;SPS30;68264;51.540;5.854;2023-07-08T00:26:57;1.56;;4.7;4.59;8383.0;;5105.8;5090.6;8382.8;
45310;SPS30;68264;51.540;5.854;2023-07-08T00:40:56;1.5;;4.64;4.53;8333.1;;5055.9;5040.9;8333.0;
45310;SPS30;68264;51.540;5.854;2023-07-08T00:54:55;2.76;;5.79;5.57;9893.3;;6616.0;6596.4;9893.1;
45310;SPS30;68264;51.540;5.854;2023-07-08T01:08:54;1.92;;5.02;4.86;8847.7;;5570.5;5554.0;8847.6;
45310;SPS30;68264;51.540;5.854;2023-07-08T01:22:53;2.04;;5.13;4.97;9001.6;;5724.3;5707.3;9001.4;
45310;SPS30;68264;51.540;5.854;2023-07-08T01:36:52;1.86;;4.97;4.86;8790.1;;5512.9;5496.5;8790.0;
45310;SPS30;68264;51.540;5.854;2023-07-08T01:50:51;1.68;;4.8;4.64;8536.6;;5259.4;5243.8;8536.5;
45310;SPS30;68264;51.540;5.854;2023-07-08T02:04:50;1.56;;4.7;4.59;8415.4;;5138.2;5122.9;8415.2;
45310;SPS30;68264;51.540;5.854;2023-07-08T02:18:49;1.74;;4.86;4.7;8620.4;;5343.2;5327.4;8620.3;
45310;SPS30;68264;51.540;5.854;2023-07-08T02:32:48;0.84;;4.04;3.93;7467.6;;4190.5;4178.0;7467.5;
45310;SPS30;68264;51.540;5.854;2023-07-08T02:46:47;1.38;;4.53;4.37;8119.6;;4842.4;4828.0;8119.4;
45310;SPS30;68264;51.540;5.854;2023-07-08T03:01:47;2.16;;5.24;5.13;9187.3;;5910.0;5892.4;9187.1;
45310;SPS30;68264;51.540;5.854;2023-07-08T03:17:16;3.0;;6.0;5.79;10219.9;;6942.6;6922.0;10219.7;
45310;SPS30;68264;51.540;5.854;2023-07-08T03:32:36;2.22;;5.3;5.13;9212.0;;5934.7;5917.1;9211.8;
45310;SPS30;68264;51.540;5.854;2023-07-08T03:48:05;2.16;;5.24;5.13;9190.9;;5913.6;5896.1;9190.7;
45310;SPS30;68264;51.540;5.854;2023-07-08T04:02:25;1.8;;4.91;4.8;8733.3;;5456.0;5439.8;8733.1;
45310;SPS30;68264;51.540;5.854;2023-07-08T04:16:24;3.06;;6.06;5.9;10346.0;;7068.6;7047.6;10345.8;
45310;SPS30;68264;51.540;5.854;2023-07-08T04:30:23;2.46;;5.51;5.35;9557.3;;6280.0;6261.4;9557.1;
45310;SPS30;68264;51.540;5.854;2023-07-08T04:44:22;4.21;;6.55;5.95;10465.3;;7174.9;7075.7;10463.1;
45310;SPS30;68264;51.540;5.854;2023-07-08T04:58:21;2.58;;5.62;5.46;9694.0;;6416.7;6397.7;9693.9;
45310;SPS30;68264;51.540;5.854;2023-07-08T05:12:20;2.64;;5.62;5.46;9684.1;;6406.0;6382.6;9683.8;
45310;SPS30;68264;51.540;5.854;2023-07-08T05:26:19;2.28;;5.35;5.19;9298.6;;6021.4;6003.5;9298.4;
45310;SPS30;68264;51.540;5.854;2023-07-08T05:40:18;1.98;;5.08;4.91;8931.9;;5654.6;5637.8;8931.7;
45310;SPS30;68264;51.540;5.854;2023-07-08T05:54:17;1.92;;5.02;4.86;8814.6;;5537.4;5521.0;8814.5;
45310;SPS30;68264;51.540;5.854;2023-07-08T06:08:16;1.2;;4.37;4.26;7908.2;;4631.0;4617.3;7908.1;
45310;SPS30;68264;51.540;5.854;2023-07-08T06:22:15;1.2;;4.37;4.21;7892.6;;4615.5;4601.8;7892.5;
45310;SPS30;68264;51.540;5.854;2023-07-08T06:36:14;0.84;;4.04;3.93;7447.0;;4169.9;4157.5;7446.9;
45310;SPS30;68264;51.540;5.854;2023-07-08T06:50:13;1.08;;4.26;4.15;7773.1;;4496.0;4482.6;7773.0;
45310;SPS30;68264;51.540;5.854;2023-07-08T07:04:12;0.72;;3.93;3.82;7322.0;;4044.7;4031.4;7321.9;
45310;SPS30;68264;51.540;5.854;2023-07-08T07:18:11;1.56;;4.7;4.53;8356.0;;5078.2;5059.4;8355.8;
45310;SPS30;68264;51.540;5.854;2023-07-08T07:32:10;1.44;;4.48;4.31;7986.4;;4706.8;4678.5;7985.9;
45310;SPS30;68264;51.540;5.854;2023-07-08T07:46:09;1.08;;4.26;4.15;7754.0;;4476.8;4463.5;7753.8;
45310;SPS30;68264;51.540;5.854;2023-07-08T08:00:08;1.44;;4.59;4.48;8253.4;;4976.2;4961.4;8253.3;
45310;SPS30;68264;51.540;5.854;2023-07-08T08:14:07;1.44;;4.59;4.42;8203.6;;4926.4;4911.7;8203.4;
45310;SPS30;68264;51.540;5.854;2023-07-08T08:28:06;1.5;;4.64;4.48;8291.6;;5014.4;4999.5;8291.5;
45310;SPS30;68264;51.540;5.854;2023-07-08T08:42:05;1.98;;5.08;4.91;8924.7;;5647.5;5630.7;8924.6;
45310;SPS30;68264;51.540;5.854;2023-07-08T08:56:04;2.04;;5.13;4.97;9005.7;;5728.4;5711.4;9005.5;
45310;SPS30;68264;51.540;5.854;2023-07-08T09:10:03;1.68;;4.8;4.7;8552.0;;5274.8;5259.1;8551.8;
45310;SPS30;68264;51.540;5.854;2023-07-08T09:24:02;1.68;;4.75;4.59;8416.2;;5137.6;5114.3;8415.8;
45310;SPS30;68264;51.540;5.854;2023-07-08T09:38:02;1.56;;4.7;4.53;8344.2;;5067.0;5052.0;8344.1;
45310;SPS30;68264;51.540;5.854;2023-07-08T09:52:01;2.16;;5.24;5.08;9178.0;;5900.8;5883.2;9177.8;
45310;SPS30;68264;51.540;5.854;2023-07-08T10:06:00;1.62;;4.7;4.53;8309.0;;5030.4;5007.6;8308.6;
45310;SPS30;68264;51.540;5.854;2023-07-08T10:20:28;1.8;;4.86;4.7;8578.2;;5299.8;5276.9;8577.9;
45310;SPS30;68264;51.540;5.854;2023-07-08T10:34:47;1.56;;4.7;4.59;8410.7;;5133.5;5118.3;8410.6;
45310;SPS30;68264;51.540;5.854;2023-07-08T10:49:47;1.26;;4.42;4.31;8027.8;;4750.7;4736.6;8027.7;
45310;SPS30;68264;51.540;5.854;2023-07-08T11:04:47;1.86;;4.75;4.42;8192.5;;4909.5;4860.2;8191.5;
45310;SPS30;68264;51.540;5.854;2023-07-08T11:18:46;1.44;;4.59;4.48;8228.4;;4951.2;4936.5;8228.3;
45310;SPS30;68264;51.540;5.854;2023-07-08T11:32:45;1.08;;4.26;4.15;7759.3;;4482.2;4468.8;7759.2;
45310;SPS30;68264;51.540;5.854;2023-07-08T11:46:44;1.02;;4.21;4.1;7705.9;;4428.7;4415.6;7705.8;
45310;SPS30;68264;51.540;5.854;2023-07-08T12:00:43;1.44;;4.53;4.31;8051.6;;4772.7;4748.1;8051.2;
45310;SPS30;68264;51.540;5.854;2023-07-08T12:15:11;0.96;;4.1;3.99;7545.8;;4268.3;4253.6;7545.6;
45310;SPS30;68264;51.540;5.854;2023-07-08T12:29:59;1.02;;4.21;4.04;7661.0;;4383.8;4370.8;7660.8;
45310;SPS30;68264;51.540;5.854;2023-07-08T12:45:20;0.72;;3.93;3.82;7321.9;;4044.8;4032.8;7321.8;
45310;SPS30;68264;51.540;5.854;2023-07-08T13:00:49;0.54;;3.77;3.66;7085.7;;3808.6;3797.0;7085.6;
45310;SPS30;68264;51.540;5.854;2023-07-08T13:15:08;0.6;;3.82;3.77;7183.1;;3906.0;3894.4;7183.0;
45310;SPS30;68264;51.540;5.854;2023-07-08T13:29:36;0.78;;3.99;3.88;7356.8;;4079.7;4067.6;7356.7;
45310;SPS30;68264;51.540;5.854;2023-07-08T13:43:55;0.72;;3.88;3.71;7138.5;;3860.2;3841.6;7138.2;
45310;SPS30;68264;51.540;5.854;2023-07-08T13:58:23;0.54;;3.77;3.66;7089.7;;3812.6;3801.3;7089.6;
45310;SPS30;68264;51.540;5.854;2023-07-08T14:13:12;0.72;;3.93;3.82;7286.6;;4009.5;3997.6;7286.5;
45310;SPS30;68264;51.540;5.854;2023-07-08T14:27:31;0.36;;3.61;3.5;6804.5;;3527.4;3517.0;6804.4;
45310;SPS30;68264;51.540;5.854;2023-07-08T14:41:30;0.3;;3.55;3.44;6725.8;;3448.8;3438.5;6725.8;
45310;SPS30;68264;51.540;5.854;2023-07-08T14:55:58;0.78;;3.99;3.88;7372.9;;4095.8;4083.6;7372.8;
45310;SPS30;68264;51.540;5.854;2023-07-08T15:11:18;0.84;;3.93;3.77;7182.5;;3902.3;3872.4;7181.9;
45310;SPS30;68264;51.540;5.854;2023-07-08T15:26:47;1.02;;4.15;3.99;7533.2;;4254.9;4234.7;7532.9;
45310;SPS30;68264;51.540;5.854;2023-07-08T15:41:06;1.62;;4.42;4.04;7612.3;;4326.9;4265.0;7610.9;
45310;SPS30;68264;51.540;5.854;2023-07-08T15:55:06;0.9;;4.1;3.99;7516.1;;4239.0;4226.4;7516.0;
45310;SPS30;68264;51.540;5.854;2023-07-08T16:09:05;0.6;;3.82;3.66;7087.8;;3809.9;3793.7;7087.6;
45310;SPS30;68264;51.540;5.854;2023-07-08T16:23:04;1.62;;4.75;4.64;8494.0;;5216.8;5201.2;8493.8;
45310;SPS30;68264;51.540;5.854;2023-07-08T16:37:32;2.16;;5.24;5.08;9165.1;;5887.8;5870.3;9164.9;
45310;SPS30;68264;51.540;5.854;2023-07-08T16:51:51;1.62;;4.75;4.64;8474.5;;5197.3;5181.8;8474.4;
45310;SPS30;68264;51.540;5.854;2023-07-08T17:06:19;1.08;;4.26;4.15;7742.1;;4465.0;4451.7;7742.0;
45310;SPS30;68264;51.540;5.854;2023-07-08T17:21:08;1.62;;4.75;4.64;8466.3;;5189.1;5173.7;8466.2;
45310;SPS30;68264;51.540;5.854;2023-07-08T17:35:56;1.5;;4.59;4.42;8166.4;;4888.0;4866.5;8166.0;
45310;SPS30;68264;51.540;5.854;2023-07-08T17:50:15;1.38;;4.53;4.37;8143.4;;4866.2;4851.8;8143.3;
45310;SPS30;68264;51.540;5.854;2023-07-08T18:04:14;1.92;;4.8;4.53;8362.0;;5080.2;5037.7;8361.2;
45310;SPS30;68264;51.540;5.854;2023-07-08T18:19:14;1.68;;4.8;4.64;8531.0;;5253.8;5238.2;8530.9;
45310;SPS30;68264;51.540;5.854;2023-07-08T18:34:14;1.44;;4.59;4.48;8259.5;;4982.3;4967.5;8259.3;
45310;SPS30;68264;51.540;5.854;2023-07-08T18:48:42;1.98;;5.08;4.97;8957.1;;5679.8;5663.0;8956.9;
45310;SPS30;68264;51.540;5.854;2023-07-08T19:03:01;1.98;;5.08;4.91;8918.8;;5641.6;5624.8;8918.7;
45310;SPS30;68264;51.540;5.854;2023-07-08T19:17:01;1.98;;5.08;4.97;8954.8;;5677.6;5660.7;8954.7;
45310;SPS30;68264;51.540;5.854;2023-07-08T19:31:00;1.92;;5.02;4.86;8850.3;;5573.0;5556.5;8850.1;
45310;SPS30;68264;51.540;5.854;2023-07-08T19:45:28;3.12;;6.11;5.95;10415.7;;7138.4;7117.2;10415.5;
45310;SPS30;68264;51.540;5.854;2023-07-08T20:00:48;3.0;;6.0;5.84;10266.4;;6989.0;6968.3;10266.2;
45310;SPS30;68264;51.540;5.854;2023-07-08T20:15:48;3.97;;6.82;6.55;4731.4;;1452.1;1416.9;4730.9;
45310;SPS30;68264;51.540;5.854;2023-07-08T20:30:16;3.85;;6.77;6.55;4756.4;;1479.0;1455.1;4756.2;
45310;SPS30;68264;51.540;5.854;2023-07-08T20:44:35;3.79;;6.71;6.49;4715.3;;1437.9;1414.2;4715.1;
45310;SPS30;68264;51.540;5.854;2023-07-08T20:58:34;3.97;;6.88;6.66;4936.5;;1659.0;1634.6;4936.2;
45310;SPS30;68264;51.540;5.854;2023-07-08T21:12:33;4.33;;7.2;6.99;5424.0;;2146.5;2120.6;5423.7;
45310;SPS30;68264;51.540;5.854;2023-07-08T21:26:32;5.53;;8.29;8.02;6948.2;;3670.6;3640.2;6947.9;
45310;SPS30;68264;51.540;5.854;2023-07-08T21:40:31;6.13;;8.84;8.57;7747.2;;4469.6;4436.8;7746.9;
45310;SPS30;68264;51.540;5.854;2023-07-08T21:54:30;6.37;;8.89;8.51;7629.6;;4348.1;4293.1;7628.7;
45310;SPS30;68264;51.540;5.854;2023-07-08T22:08:29;6.85;;9.49;9.22;8681.4;;5403.7;5368.2;8681.1;
45310;SPS30;68264;51.540;5.854;2023-07-08T22:22:28;6.67;;9.33;9.0;8381.9;;5104.2;5069.6;8381.6;
45310;SPS30;68264;51.540;5.854;2023-07-08T22:36:27;8.77;;11.24;10.85;11118.1;;7840.2;7797.4;11117.7;
45310;SPS30;68264;51.540;5.854;2023-07-08T22:50:26;9.85;;12.22;11.78;5961.6;;2683.6;2636.7;5961.2;
45310;SPS30;68264;51.540;5.854;2023-07-08T23:04:54;5.95;;8.67;8.4;7512.3;;4234.6;4202.6;7512.0;
45310;SPS30;68264;51.540;5.854;2023-07-08T23:20:15;5.77;;8.51;8.24;7230.7;;3953.1;3921.9;7230.4;
45310;SPS30;68264;51.540;5.854;2023-07-08T23:35:14;6.67;;9.33;9.0;8404.9;;5127.2;5092.5;8404.6;
45310;SPS30;68264;51.540;5.854;2023-07-08T23:49:13;8.23;;10.75;10.36;10406.1;;7128.3;7087.6;10405.7;
